Time;durP1;ratioP1;P1;durP2;ratioP2;P2;SDS_P1;SDS_P2;PMS_P1;PMS_P2;Temp;Humidity;BMP_temperature;BMP_pressure;BME280_temperature;BME280_humidity;BME280_pressure;Samples;Min_cycle;Max_cycle;Signal;HPM_P1;HPM_P2
2022/12/30 19:51:24;;;;;;;;;0.00;0.00;;;;;14.54;100.00;100345.31;5093499;27;45231;-52
2022/12/30 19:53:50;;;;;;;;;0.50;0.50;;;;;14.63;100.00;100339.25;5075788;27;45351;-52
2022/12/30 19:56:18;;;;;;;;;2.00;0.00;;;;;14.66;99.23;100336.38;5076052;27;45240;-52
2022/12/30 19:58:45;;;;;;;;;0.00;0.00;;;;;14.67;98.67;100340.78;5075349;27;46265;-53
2022/12/30 20:01:14;;;;;;;;;0.00;0.00;;;;;14.70;98.40;100339.72;5075669;27;45427;-50
2022/12/30 20:03:40;;;;;;;;;0.00;0.00;;;;;14.76;98.18;100339.28;5074658;28;45324;-55
2022/12/30 20:06:07;;;;;;;;;0.00;0.00;;;;;14.63;97.16;100323.06;5075953;28;45353;-62
2022/12/30 20:08:34;;;;;;;;;0.00;0.00;;;;;14.82;96.88;100328.06;5073893;28;46793;-62
2022/12/30 20:11:09;;;;;;;;;0.00;0.00;;;;;14.78;96.40;100337.38;5075452;27;45568;-63
2022/12/30 20:13:34;;;;;;;;;0.00;0.00;;;;;14.78;96.37;100331.97;5073723;28;45364;-64
2022/12/30 20:16:28;;;;;;;;;0.00;0.00;;;;;14.84;96.17;100339.63;5074839;28;45354;-63
2022/12/30 20:18:56;;;;;;;;;0.00;0.00;;;;;14.86;95.54;100329.59;5064117;27;45346;-61
2022/12/30 20:21:23;;;;;;;;;1.50;0.00;;;;;14.90;95.09;100341.88;5075027;27;45338;-61
2022/12/30 20:23:48;;;;;;;;;0.00;0.00;;;;;14.91;94.87;100330.13;5075260;27;45417;-62
2022/12/30 20:26:17;;;;;;;;;0.00;0.00;;;;;14.93;94.93;100330.88;5074341;28;45379;-62
2022/12/30 20:28:43;;;;;;;;;0.00;0.00;;;;;14.93;94.27;100347.06;5075214;28;45349;-62
2022/12/30 20:31:12;;;;;;;;;0.00;0.00;;;;;14.92;94.03;100347.19;5075222;27;45285;-63
2022/12/30 20:33:38;;;;;;;;;0.00;0.00;;;;;14.96;93.97;100348.72;5074228;28;45297;-66
2022/12/30 20:36:04;;;;;;;;;0.75;0.75;;;;;14.98;93.94;100347.59;5075006;28;45320;-62
2022/12/30 20:38:30;;;;;;;;;1.50;1.50;;;;;15.01;93.73;100344.69;5075300;27;45904;-61
2022/12/30 20:41:04;;;;;;;;;0.50;0.50;;;;;15.01;93.76;100341.13;5074904;27;45260;-61
2022/12/30 20:43:32;;;;;;;;;1.00;1.00;;;;;15.03;94.21;100350.00;5073683;28;45385;-62
2022/12/30 20:46:05;;;;;;;;;0.00;0.00;;;;;15.04;94.38;100359.84;5069688;28;45409;-62
2022/12/30 20:48:31;;;;;;;;;0.00;0.00;;;;;15.05;93.97;100366.97;5073691;28;45316;-62
2022/12/30 20:50:57;;;;;;;;;1.00;1.00;;;;;14.99;94.21;100354.75;5069209;27;45267;-62
2022/12/30 20:53:22;;;;;;;;;0.00;0.00;;;;;15.01;94.48;100360.03;5061189;28;45414;-63
2022/12/30 20:58:19;;;;;;;;;0.00;0.00;;;;;14.98;93.67;100371.03;5026732;28;46908;-61
2022/12/30 21:00:44;;;;;;;;;1.00;0.00;;;;;14.99;93.89;100372.78;5020874;28;46042;-61
2022/12/30 21:03:10;;;;;;;;;0.00;0.00;;;;;15.00;93.58;100359.16;5021581;28;45139;-62
2022/12/30 21:05:39;;;;;;;;;0.00;0.00;;;;;15.01;93.53;100371.69;5021118;28;45790;-62
2022/12/30 21:08:04;;;;;;;;;0.00;0.00;;;;;15.02;93.81;100372.56;5021429;28;45424;-64
2022/12/30 21:10:30;;;;;;;;;0.00;0.00;;;;;15.04;93.37;100363.41;5021244;28;45337;-62
2022/12/30 21:12:55;;;;;;;;;0.00;0.00;;;;;15.06;93.59;100366.81;5020907;28;45246;-62
2022/12/30 21:15:21;;;;;;;;;0.00;0.00;;;;;15.07;93.43;100387.47;5019071;28;45742;-61
2022/12/30 21:17:46;;;;;;;;;0.00;0.00;;;;;15.05;93.27;100383.16;5020245;28;45500;-61
2022/12/30 21:20:11;;;;;;;;;0.00;0.00;;;;;15.07;92.94;100382.06;5020079;28;45329;-63
2022/12/30 21:22:37;;;;;;;;;0.00;0.00;;;;;15.07;92.53;100375.78;5021269;28;45258;-61
2022/12/30 21:25:02;;;;;;;;;0.00;0.00;;;;;15.09;92.06;100392.75;5020978;28;45269;-63
2022/12/30 21:27:28;;;;;;;;;1.00;0.00;;;;;15.12;91.93;100392.56;5020750;28;45369;-61
2022/12/30 21:29:53;;;;;;;;;1.00;0.00;;;;;15.13;91.83;100397.84;5020659;28;46164;-62
2022/12/30 21:32:18;;;;;;;;;0.00;0.00;;;;;15.11;91.58;100397.09;5020852;28;45444;-64
2022/12/30 21:34:43;;;;;;;;;0.00;0.00;;;;;15.16;91.65;100385.94;5020859;28;45333;-62
2022/12/30 21:37:09;;;;;;;;;0.00;0.00;;;;;15.17;90.92;100381.41;5018005;28;45435;-62
2022/12/30 22:05:23;;;;;;;;;0.00;0.00;;;;;15.32;88.54;100400.09;5020203;28;45412;-55
2022/12/30 22:07:56;;;;;;;;;0.00;0.00;;;;;15.36;88.26;100401.63;5020117;28;45399;-51
2022/12/30 22:10:26;;;;;;;;;0.00;0.00;;;;;15.34;88.34;100410.78;5020290;28;45384;-53
2022/12/30 22:12:54;;;;;;;;;1.25;0.00;;;;;15.35;88.01;100401.72;5019454;28;46257;-53
2022/12/30 22:15:20;;;;;;;;;0.00;0.00;;;;;15.38;87.85;100404.22;5020248;28;45346;-52
2022/12/30 22:17:45;;;;;;;;;0.00;0.00;;;;;15.31;87.65;100405.63;5020041;28;45324;-53
2022/12/30 22:20:12;;;;;;;;;1.00;0.00;;;;;15.28;87.13;100404.00;5019970;28;45324;-53
2022/12/30 22:22:43;;;;;;;;;0.00;0.00;;;;;15.32;87.06;100410.91;5019752;28;46044;-54
2022/12/30 22:25:08;;;;;;;;;0.00;0.00;;;;;15.34;87.32;100419.75;5019812;28;45303;-51
2022/12/30 22:27:34;;;;;;;;;1.00;0.00;;;;;15.36;86.92;100416.97;5019634;28;45249;-51
2022/12/30 22:29:59;;;;;;;;;0.25;0.00;;;;;15.37;86.99;100438.47;5019108;28;45445;-54
2022/12/30 22:32:25;;;;;;;;;0.00;0.00;;;;;15.37;88.42;100434.91;5019754;28;45540;-54
2022/12/30 22:34:50;;;;;;;;;0.00;0.00;;;;;15.39;88.96;100422.16;5024844;28;45986;-51
2022/12/30 22:37:15;;;;;;;;;0.00;0.00;;;;;15.35;89.35;100435.00;5026700;28;45415;-50
2022/12/30 22:39:40;;;;;;;;;0.00;0.00;;;;;15.34;90.32;100419.75;5029071;28;45761;-52
2022/12/30 22:42:06;;;;;;;;;0.00;0.00;;;;;15.28;91.11;100428.31;5029606;28;45757;-52
2022/12/30 22:44:31;;;;;;;;;0.00;0.00;;;;;15.18;91.66;100437.16;5029024;28;45328;-54
2022/12/30 22:46:56;;;;;;;;;0.25;0.00;;;;;15.21;91.32;100447.75;4994238;28;45468;-55
2022/12/30 22:49:22;;;;;;;;;0.00;0.00;;;;;15.20;91.54;100451.41;5027607;28;45314;-50
2022/12/30 22:51:47;;;;;;;;;0.75;0.00;;;;;15.23;91.22;100459.28;5029604;28;46314;-54
2022/12/30 22:54:13;;;;;;;;;0.00;0.00;;;;;15.12;91.17;100433.91;5029849;28;45307;-51
2022/12/30 22:56:38;;;;;;;;;3.00;0.00;;;;;15.22;91.23;100452.19;5020960;28;45487;-52
2022/12/30 22:59:03;;;;;;;;;0.00;0.00;;;;;15.25;91.05;100462.75;5029173;28;45711;-54
2022/12/30 23:01:29;;;;;;;;;0.00;0.00;;;;;15.24;91.02;100455.63;5028901;28;46727;-52
2022/12/30 23:03:56;;;;;;;;;0.00;0.00;;;;;15.24;90.98;100475.38;5024870;28;45653;-67
2022/12/30 23:06:21;;;;;;;;;0.50;0.00;;;;;15.25;91.05;100463.63;5019972;28;45420;-66
2022/12/30 23:08:47;;;;;;;;;1.00;1.00;;;;;15.16;90.64;100464.25;5025715;28;45258;-66
2022/12/30 23:11:14;;;;;;;;;0.25;0.00;;;;;15.16;90.92;100461.56;5019499;28;45475;-65
2022/12/30 23:16:25;;;;;;;;;0.25;0.00;;;;;15.24;89.77;100475.38;5028677;28;45411;-66
2022/12/30 23:18:50;;;;;;;;;1.75;0.00;;;;;15.26;89.83;100472.59;5020318;28;45412;-66
2022/12/30 23:21:18;;;;;;;;;0.25;0.00;;;;;15.33;89.72;100473.88;5005081;28;45393;-66
2022/12/30 23:26:30;;;;;;;;;4.00;0.75;;;;;15.34;90.21;100475.63;5024606;28;45522;-66
2022/12/30 23:28:56;;;;;;;;;0.00;0.00;;;;;15.30;89.90;100469.59;5018845;28;45253;-65
2022/12/30 23:31:22;;;;;;;;;1.50;0.50;;;;;15.35;89.96;100494.44;5025092;28;45273;-66
2022/12/30 23:33:48;;;;;;;;;0.75;0.25;;;;;15.32;89.70;100470.31;5027016;28;45342;-65
2022/12/30 23:36:15;;;;;;;;;0.00;0.00;;;;;15.36;90.14;100479.09;5018220;28;45249;-65
2022/12/30 23:38:41;;;;;;;;;0.00;0.00;;;;;15.36;90.26;100474.53;5027943;28;45232;-65
2022/12/30 23:41:07;;;;;;;;;2.00;0.00;;;;;15.23;90.63;100462.84;5028674;28;45391;-67
2022/12/30 23:43:33;;;;;;;;;0.00;0.00;;;;;15.33;90.89;100477.44;5027594;28;45374;-65
2022/12/30 23:45:59;;;;;;;;;0.00;0.00;;;;;15.29;90.64;100465.16;5028526;28;45378;-65
2022/12/30 23:48:26;;;;;;;;;0.00;0.00;;;;;15.23;90.76;100470.97;5025781;28;45305;-65
2022/12/30 23:50:51;;;;;;;;;0.00;0.00;;;;;15.23;91.24;100468.25;5027628;28;47124;-66
2022/12/30 23:53:17;;;;;;;;;0.00;0.00;;;;;15.19;90.96;100472.16;5028546;28;45369;-66
2022/12/30 23:55:43;;;;;;;;;0.75;0.75;;;;;15.15;91.28;100462.53;5030096;28;45321;-65
2022/12/30 23:58:08;;;;;;;;;0.00;0.00;;;;;15.21;91.61;100482.84;5018222;28;45262;-66
